createdAt,value
2023-04-15T00:00:15.404Z,81.54
2023-04-15T00:01:15.502Z,81.54
2023-04-15T00:02:15.641Z,81.74
2023-04-15T00:03:15.812Z,81.74
2023-04-15T00:04:15.770Z,81.84
2023-04-15T00:05:15.789Z,82.15
2023-04-15T00:06:15.921Z,82.36
2023-04-15T00:07:15.979Z,82.57
2023-04-15T00:08:16.064Z,82.67
2023-04-15T00:09:16.149Z,82.36
2023-04-15T00:10:16.256Z,82.26
2023-04-15T00:11:16.312Z,82.26
2023-04-15T00:12:16.382Z,82.15
2023-04-15T00:13:16.455Z,81.95
2023-04-15T00:14:16.561Z,82.15
2023-04-15T00:15:16.627Z,82.26
2023-04-15T00:16:16.760Z,82.26
2023-04-15T00:17:16.790Z,82.26
2023-04-15T00:18:16.934Z,82.26
2023-04-15T00:19:16.956Z,82.15
2023-04-15T00:20:17.090Z,82.09
2023-04-15T00:21:17.168Z,81.99
2023-04-15T00:22:17.225Z,81.99
2023-04-15T00:23:17.327Z,81.88
2023-04-15T00:24:17.378Z,81.68
2023-04-15T00:25:17.476Z,81.82
2023-04-15T00:26:17.598Z,81.92
2023-04-15T00:27:17.659Z,82.13
2023-04-15T00:28:17.736Z,82.34
2023-04-15T00:29:17.809Z,82.44
2023-04-15T00:30:17.965Z,82.34
2023-04-15T00:31:18.065Z,82.34
2023-04-15T00:32:18.170Z,82.34
2023-04-15T00:33:18.133Z,82.34
2023-04-15T00:34:18.235Z,82.34
2023-04-15T00:35:18.343Z,82.48
2023-04-15T00:36:18.446Z,82.86
2023-04-15T00:37:18.507Z,83.37
2023-04-15T00:38:18.616Z,83.58
2023-04-15T00:39:18.667Z,83.68
2023-04-15T00:40:18.768Z,83.68
2023-04-15T00:41:18.834Z,83.47
2023-04-15T00:42:18.889Z,83.26
2023-04-15T00:43:18.975Z,83.06
2023-04-15T00:44:19.064Z,83.06
2023-04-15T00:45:19.143Z,82.95
2023-04-15T00:46:19.325Z,82.86
2023-04-15T00:47:19.300Z,82.75
2023-04-15T00:48:19.373Z,82.86
2023-04-15T00:49:19.442Z,82.79
2023-04-15T00:50:19.547Z,82.79
2023-04-15T00:51:19.645Z,83.00
2023-04-15T00:52:19.722Z,83.10
2023-04-15T00:53:19.802Z,83.10
2023-04-15T00:54:19.895Z,83.10
2023-04-15T00:55:19.955Z,83.10
2023-04-15T00:56:20.068Z,83.31
2023-04-15T00:57:20.128Z,83.41
2023-04-15T00:58:20.234Z,83.41
2023-04-15T00:59:20.314Z,83.31
2023-04-15T01:00:20.401Z,83.24
2023-04-15T01:01:20.495Z,83.14
2023-04-15T01:02:20.642Z,83.17
2023-04-15T01:03:20.848Z,83.59
2023-04-15T01:04:20.798Z,83.80
2023-04-15T01:05:20.816Z,83.65
2023-04-15T01:06:20.942Z,83.34
2023-04-15T01:07:20.969Z,82.82
2023-04-15T01:08:21.066Z,82.76
2023-04-15T01:09:21.142Z,82.86
2023-04-15T01:10:21.222Z,82.86
2023-04-15T01:11:21.325Z,82.93
2023-04-15T01:12:21.402Z,82.82
2023-04-15T01:13:21.477Z,82.62
2023-04-15T01:14:21.568Z,82.37
2023-04-15T01:15:21.641Z,82.06
2023-04-15T01:16:21.808Z,81.75
2023-04-15T01:17:21.839Z,81.65
2023-04-15T01:18:21.919Z,81.44
2023-04-15T01:19:21.996Z,81.23
2023-04-15T01:20:22.095Z,81.02
2023-04-15T01:21:22.202Z,81.23
2023-04-15T01:22:22.250Z,81.44
2023-04-15T01:23:22.329Z,81.34
2023-04-15T01:24:22.425Z,81.44
2023-04-15T01:25:22.501Z,81.34
2023-04-15T01:26:22.587Z,81.85
2023-04-15T01:27:22.625Z,81.92
2023-04-15T01:28:22.699Z,81.96
2023-04-15T01:29:22.768Z,82.06
2023-04-15T01:30:22.872Z,82.17
2023-04-15T01:31:22.990Z,82.06
2023-04-15T01:32:23.038Z,82.27
2023-04-15T01:33:23.105Z,82.37
2023-04-15T01:34:23.201Z,82.48
2023-04-15T01:35:23.284Z,82.62
2023-04-15T01:36:23.406Z,82.72
2023-04-15T01:37:23.439Z,82.62
2023-04-15T01:38:23.533Z,83.03
2023-04-15T01:39:23.604Z,83.03
2023-04-15T01:40:23.684Z,83.03
2023-04-15T01:41:23.839Z,82.93
2023-04-15T01:42:23.855Z,82.93
2023-04-15T01:43:23.956Z,82.93
2023-04-15T01:44:24.018Z,83.03
2023-04-15T01:45:24.119Z,83.24
2023-04-15T01:46:24.262Z,83.65
2023-04-15T01:47:24.299Z,83.76
2023-04-15T01:48:24.363Z,83.55
2023-04-15T01:49:24.454Z,83.55
2023-04-15T01:50:24.533Z,83.45
2023-04-15T01:51:24.642Z,83.34
2023-04-15T01:52:24.700Z,83.14
2023-04-15T01:53:24.786Z,83.07
2023-04-15T01:54:24.862Z,83.24
2023-04-15T01:55:24.943Z,83.65
2023-04-15T01:56:25.062Z,83.59
2023-04-15T01:57:25.108Z,83.17
2023-04-15T01:58:25.193Z,83.80
2023-04-15T01:59:25.291Z,83.69
2023-04-15T02:00:25.374Z,83.48
2023-04-15T02:01:25.515Z,83.38
2023-04-15T02:02:25.561Z,83.38
2023-04-15T02:03:25.718Z,83.28
2023-04-15T02:04:25.684Z,83.22
2023-04-15T02:05:25.756Z,83.11
2023-04-15T02:06:25.859Z,83.01
2023-04-15T02:07:25.917Z,83.01
2023-04-15T02:08:25.969Z,83.01
2023-04-15T02:09:26.070Z,83.11
2023-04-15T02:10:26.158Z,83.42
2023-04-15T02:11:26.270Z,83.63
2023-04-15T02:12:26.353Z,83.84
2023-04-15T02:13:26.450Z,84.25
2023-04-15T02:14:26.529Z,84.15
2023-04-15T02:15:26.638Z,84.15
2023-04-15T02:16:26.788Z,84.05
2023-04-15T02:17:26.785Z,84.15
2023-04-15T02:18:26.845Z,84.08
2023-04-15T02:19:26.942Z,84.29
2023-04-15T02:20:27.027Z,84.91
2023-04-15T02:21:27.156Z,84.81
2023-04-15T02:22:27.234Z,84.70
2023-04-15T02:23:27.323Z,84.95
2023-04-15T02:24:27.394Z,85.26
2023-04-15T02:25:27.499Z,85.51
2023-04-15T02:26:27.571Z,85.93
2023-04-15T02:27:27.627Z,86.49
2023-04-15T02:28:27.682Z,87.01
2023-04-15T02:29:27.782Z,87.32
2023-04-15T02:30:27.857Z,87.52
2023-04-15T02:31:28.019Z,87.63
2023-04-15T02:32:28.068Z,87.52
2023-04-15T02:33:28.101Z,87.48
2023-04-15T02:34:28.172Z,87.38
2023-04-15T02:35:28.245Z,87.17
2023-04-15T02:36:28.334Z,86.96
2023-04-15T02:37:28.411Z,86.96
2023-04-15T02:38:28.475Z,86.76
2023-04-15T02:39:28.571Z,86.61
2023-04-15T02:40:28.649Z,86.51
2023-04-15T02:41:28.777Z,86.41
2023-04-15T02:42:28.819Z,86.30
2023-04-15T02:43:28.906Z,86.19
2023-04-15T02:44:28.991Z,86.19
2023-04-15T02:45:29.074Z,85.99
2023-04-15T02:46:29.283Z,85.88
2023-04-15T02:47:29.234Z,85.68
2023-04-15T02:48:29.292Z,85.61
2023-04-15T02:49:29.380Z,85.41
2023-04-15T02:50:30.015Z,85.41
2023-04-15T02:51:29.730Z,85.51
2023-04-15T02:52:29.644Z,85.78
2023-04-15T02:53:29.896Z,85.88
2023-04-15T02:54:29.820Z,86.19
2023-04-15T02:55:29.894Z,86.30
2023-04-15T02:56:30.095Z,86.30
2023-04-15T02:57:30.037Z,86.30
2023-04-15T02:58:30.122Z,86.19
2023-04-15T02:59:30.225Z,85.99
2023-04-15T03:00:30.279Z,85.88
2023-04-15T03:01:30.412Z,85.68
2023-04-15T03:02:30.570Z,85.57
2023-04-15T03:03:30.602Z,85.47
2023-04-15T03:04:30.677Z,85.41
2023-04-15T03:05:30.716Z,85.41
2023-04-15T03:06:30.811Z,85.41
2023-04-15T03:07:30.847Z,85.41
2023-04-15T03:08:30.923Z,85.47
2023-04-15T03:09:30.986Z,85.41
2023-04-15T03:10:31.082Z,85.47
2023-04-15T03:11:31.157Z,85.47
2023-04-15T03:12:31.236Z,85.57
2023-04-15T03:13:31.384Z,85.57
2023-04-15T03:14:31.415Z,85.57
2023-04-15T03:15:31.503Z,85.57
2023-04-15T03:16:31.559Z,85.47
2023-04-15T03:17:31.623Z,85.36
2023-04-15T03:18:31.687Z,85.26
2023-04-15T03:19:31.762Z,85.16
2023-04-15T03:20:31.932Z,85.05
2023-04-15T03:21:31.935Z,85.05
2023-04-15T03:22:32.024Z,85.16
2023-04-15T03:23:32.142Z,85.47
2023-04-15T03:24:32.180Z,85.68
2023-04-15T03:25:32.258Z,85.78
2023-04-15T03:26:32.404Z,85.68
2023-04-15T03:27:32.422Z,85.47
2023-04-15T03:28:32.485Z,85.47
2023-04-15T03:29:32.546Z,85.57
2023-04-15T03:30:32.657Z,85.57
2023-04-15T03:31:32.781Z,85.57
2023-04-15T03:32:32.836Z,85.68
2023-04-15T03:33:32.893Z,85.88
2023-04-15T03:34:32.975Z,85.99
2023-04-15T03:35:33.048Z,86.09
2023-04-15T03:36:33.187Z,86.09
2023-04-15T03:37:33.180Z,86.09
2023-04-15T03:38:33.272Z,86.09
2023-04-15T03:39:33.356Z,86.03
2023-04-15T03:40:33.441Z,86.03
2023-04-15T03:41:33.571Z,86.24
2023-04-15T03:42:33.631Z,86.24
2023-04-15T03:43:33.704Z,86.24
2023-04-15T03:44:33.777Z,86.24
2023-04-15T03:45:33.872Z,86.24
2023-04-15T03:46:33.974Z,86.30
2023-04-15T03:47:34.052Z,86.30
2023-04-15T03:48:34.084Z,86.24
2023-04-15T03:49:34.154Z,85.99
2023-04-15T03:50:34.251Z,85.88
2023-04-15T03:51:34.354Z,85.88
2023-04-15T03:52:34.429Z,85.68
2023-04-15T03:53:34.505Z,85.61
2023-04-15T03:54:34.598Z,85.72
2023-04-15T03:55:34.685Z,85.82
2023-04-15T03:56:34.787Z,85.93
2023-04-15T03:57:34.836Z,85.82
2023-04-15T03:58:34.912Z,85.72
2023-04-15T03:59:35.004Z,85.51
2023-04-15T04:00:35.091Z,85.10
2023-04-15T04:01:35.208Z,85.24
2023-04-15T04:02:35.446Z,85.34
2023-04-15T04:03:35.593Z,85.55
2023-04-15T04:04:35.529Z,85.86
2023-04-15T04:05:35.529Z,85.96
2023-04-15T04:06:36.040Z,86.17
2023-04-15T04:07:35.719Z,86.38
2023-04-15T04:08:35.835Z,86.38
2023-04-15T04:09:35.906Z,86.34
2023-04-15T04:10:36.002Z,86.24
2023-04-15T04:11:36.407Z,86.13
2023-04-15T04:12:36.138Z,86.03
2023-04-15T04:13:36.204Z,85.93
2023-04-15T04:14:36.275Z,85.82
2023-04-15T04:15:36.399Z,85.82
2023-04-15T04:16:36.526Z,85.72
2023-04-15T04:17:36.518Z,85.55
2023-04-15T04:18:36.574Z,85.55
2023-04-15T04:19:36.662Z,85.75
2023-04-15T04:20:36.780Z,85.82
2023-04-15T04:21:36.849Z,85.72
2023-04-15T04:22:36.929Z,85.72
2023-04-15T04:23:36.984Z,85.61
2023-04-15T04:24:37.093Z,85.51
2023-04-15T04:25:37.169Z,85.41
2023-04-15T04:26:37.265Z,85.30
2023-04-15T04:27:37.333Z,85.20
2023-04-15T04:28:37.404Z,85.24
2023-04-15T04:29:37.472Z,85.13
2023-04-15T04:30:37.554Z,85.13
2023-04-15T04:31:37.664Z,85.13
2023-04-15T04:32:37.749Z,85.13
2023-04-15T04:33:37.769Z,85.13
2023-04-15T04:34:37.870Z,85.24
2023-04-15T04:35:37.969Z,85.24
2023-04-15T04:36:38.028Z,85.13
2023-04-15T04:37:38.106Z,85.13
2023-04-15T04:38:38.147Z,85.03
2023-04-15T04:39:38.230Z,85.03
2023-04-15T04:40:38.300Z,85.13
2023-04-15T04:41:38.377Z,85.13
2023-04-15T04:42:39.982Z,85.13
2023-04-15T04:43:38.557Z,85.13
2023-04-15T04:44:38.644Z,85.24
2023-04-15T04:45:38.744Z,85.34
2023-04-15T04:46:38.803Z,85.24
2023-04-15T04:47:38.868Z,85.24
2023-04-15T04:48:38.953Z,85.24
2023-04-15T04:49:39.017Z,85.24
2023-04-15T04:50:39.096Z,85.34
2023-04-15T04:51:39.185Z,85.34
2023-04-15T04:52:39.264Z,85.44
2023-04-15T04:53:39.355Z,85.44
2023-04-15T04:54:39.441Z,85.34
2023-04-15T04:55:39.537Z,85.38
2023-04-15T04:56:39.637Z,85.38
2023-04-15T04:57:39.719Z,85.38
2023-04-15T04:58:39.773Z,85.49
2023-04-15T04:59:39.844Z,85.59
2023-04-15T05:00:39.916Z,85.59
2023-04-15T05:01:40.069Z,85.69
2023-04-15T05:02:40.137Z,85.69
2023-04-15T05:03:40.242Z,85.65
2023-04-15T05:04:40.209Z,85.75
2023-04-15T05:05:40.284Z,85.75
2023-04-15T05:06:40.387Z,85.65
2023-04-15T05:07:40.448Z,85.65
2023-04-15T05:08:40.572Z,85.65
2023-04-15T05:09:40.597Z,85.75
2023-04-15T05:10:40.676Z,85.65
2023-04-15T05:11:40.769Z,85.65
2023-04-15T05:12:40.829Z,85.75
2023-04-15T05:13:40.898Z,85.75
2023-04-15T05:14:41.006Z,85.86
2023-04-15T05:15:41.116Z,85.75
2023-04-15T05:16:41.164Z,85.75
2023-04-15T05:17:41.243Z,85.72
2023-04-15T05:18:41.345Z,85.61
2023-04-15T05:19:41.393Z,85.61
2023-04-15T05:20:41.511Z,85.51
2023-04-15T05:21:41.585Z,85.41
2023-04-15T05:22:41.644Z,85.41
2023-04-15T05:23:41.729Z,85.41
2023-04-15T05:24:41.836Z,85.30
2023-04-15T05:25:41.884Z,85.20
2023-04-15T05:26:42.920Z,85.16
2023-04-15T05:27:42.075Z,85.16
2023-04-15T05:28:42.165Z,84.95
2023-04-15T05:29:42.254Z,85.05
2023-04-15T05:30:42.343Z,85.05
2023-04-15T05:31:42.559Z,85.05
2023-04-15T05:32:42.549Z,84.84
2023-04-15T05:33:42.595Z,84.50
2023-04-15T05:34:42.690Z,84.29
2023-04-15T05:35:42.776Z,84.29
2023-04-15T05:36:42.897Z,84.19
2023-04-15T05:37:42.934Z,84.08
2023-04-15T05:38:43.021Z,84.08
2023-04-15T05:39:43.104Z,84.05
2023-04-15T05:40:43.196Z,84.15
2023-04-15T05:41:43.389Z,84.25
2023-04-15T05:42:43.387Z,84.36
2023-04-15T05:43:43.458Z,84.36
2023-04-15T05:44:43.567Z,84.46
2023-04-15T05:45:43.631Z,84.42
2023-04-15T05:46:43.788Z,84.42
2023-04-15T05:47:43.807Z,84.52
2023-04-15T05:48:43.863Z,84.63
2023-04-15T05:49:43.949Z,84.48
2023-04-15T05:50:44.052Z,84.48
2023-04-15T05:51:44.131Z,84.28
2023-04-15T05:52:44.236Z,84.07
2023-04-15T05:53:44.289Z,83.97
2023-04-15T05:54:44.375Z,83.83
2023-04-15T05:55:44.459Z,83.72
2023-04-15T05:56:44.560Z,83.62
2023-04-15T05:57:44.655Z,83.37
2023-04-15T05:58:44.730Z,83.26
2023-04-15T05:59:44.814Z,83.16
2023-04-15T06:00:44.871Z,83.02
2023-04-15T06:01:44.981Z,83.02
2023-04-15T06:02:45.195Z,82.78
2023-04-15T06:03:45.343Z,82.57
2023-04-15T06:04:45.226Z,82.46
2023-04-15T06:05:45.273Z,82.15
2023-04-15T06:06:45.372Z,81.81
2023-04-15T06:07:47.279Z,81.29
2023-04-15T06:08:45.489Z,81.15
2023-04-15T06:09:45.598Z,81.05
2023-04-15T06:10:45.666Z,81.05
2023-04-15T06:11:45.762Z,81.01
2023-04-15T06:12:45.829Z,80.90
2023-04-15T06:13:45.907Z,80.76
2023-04-15T06:14:45.964Z,80.25
2023-04-15T06:15:46.071Z,79.83
2023-04-15T06:16:46.135Z,79.38
2023-04-15T06:17:46.247Z,79.45
2023-04-15T06:18:46.284Z,79.35
2023-04-15T06:19:46.384Z,78.80
2023-04-15T06:20:46.465Z,78.18
2023-04-15T06:21:46.568Z,78.14
2023-04-15T06:22:46.622Z,78.04
2023-04-15T06:23:46.696Z,77.59
2023-04-15T06:24:46.772Z,77.14
2023-04-15T06:25:46.838Z,76.90
2023-04-15T06:26:46.912Z,76.42
2023-04-15T06:27:46.993Z,75.21
2023-04-15T06:28:47.062Z,73.68
2023-04-15T06:29:47.128Z,71.83
2023-04-15T06:30:47.198Z,69.68
2023-04-15T06:31:47.331Z,66.86
2023-04-15T06:32:47.481Z,64.86
2023-04-15T06:33:47.472Z,63.16
2023-04-15T06:34:47.541Z,62.42
2023-04-15T06:35:47.628Z,61.60
2023-04-15T06:36:47.741Z,61.32
2023-04-15T06:37:47.804Z,61.76
2023-04-15T06:38:47.852Z,62.81
2023-04-15T06:39:47.940Z,63.12
2023-04-15T06:40:48.043Z,63.53
2023-04-15T06:41:48.132Z,62.92
2023-04-15T06:42:48.212Z,63.04
2023-04-15T06:43:48.307Z,63.79
2023-04-15T06:44:48.370Z,64.64
2023-04-15T06:45:48.488Z,64.81
2023-04-15T06:46:48.542Z,65.49
2023-04-15T06:47:48.643Z,66.31
2023-04-15T06:48:48.697Z,66.69
2023-04-15T06:49:48.782Z,66.38
2023-04-15T06:50:48.851Z,65.73
2023-04-15T06:51:50.554Z,65.19
2023-04-15T06:52:49.018Z,64.75
2023-04-15T06:53:49.094Z,64.55
2023-04-15T06:54:49.156Z,63.93
2023-04-15T06:55:49.233Z,63.40
2023-04-15T06:56:49.292Z,62.65
2023-04-15T06:57:49.433Z,62.42
2023-04-15T06:58:49.458Z,60.92
2023-04-15T06:59:49.539Z,62.48
2023-04-15T07:00:49.638Z,62.61
2023-04-15T07:01:49.744Z,62.92
2023-04-15T07:02:49.858Z,63.15
2023-04-15T07:03:49.911Z,63.45
2023-04-15T07:04:49.916Z,63.63
2023-04-15T07:05:49.994Z,63.32
2023-04-15T07:06:50.056Z,63.12
2023-04-15T07:07:50.159Z,62.99
2023-04-15T07:08:50.202Z,62.58
2023-04-15T07:09:50.281Z,62.45
2023-04-15T07:10:50.345Z,61.83
2023-04-15T07:11:50.425Z,61.22
2023-04-15T07:12:50.499Z,62.45
2023-04-15T07:13:50.576Z,62.76
2023-04-15T07:14:50.633Z,63.26
2023-04-15T07:15:50.734Z,63.37
2023-04-15T07:16:50.834Z,63.67
2023-04-15T07:17:50.989Z,63.67
2023-04-15T07:18:50.963Z,64.01
2023-04-15T07:19:51.020Z,64.68
2023-04-15T07:20:51.079Z,65.94
2023-04-15T07:21:51.163Z,66.35
2023-04-15T07:22:51.273Z,66.35
2023-04-15T07:23:51.307Z,66.25
2023-04-15T07:24:51.369Z,65.63
2023-04-15T07:25:51.479Z,65.12
2023-04-15T07:26:51.560Z,65.22
2023-04-15T07:27:51.673Z,65.63
2023-04-15T07:28:51.699Z,65.70
2023-04-15T07:29:51.789Z,65.09
2023-04-15T07:30:51.884Z,65.47
2023-04-15T07:31:51.936Z,65.37
2023-04-15T07:32:52.043Z,65.16
2023-04-15T07:33:52.079Z,64.42
2023-04-15T07:34:52.145Z,63.81
2023-04-15T07:35:52.222Z,63.78
2023-04-15T07:36:52.350Z,63.44
2023-04-15T07:37:52.393Z,63.00
2023-04-15T07:38:52.452Z,62.77
2023-04-15T07:39:52.527Z,62.13
2023-04-15T07:40:52.596Z,61.82
2023-04-15T07:41:52.662Z,60.80
2023-04-15T07:42:52.753Z,61.31
2023-04-15T07:43:52.801Z,61.11
2023-04-15T07:44:52.893Z,61.29
2023-04-15T07:45:53.002Z,60.88
2023-04-15T07:46:53.047Z,61.05
2023-04-15T07:47:53.221Z,61.15
2023-04-15T07:48:53.193Z,61.15
2023-04-15T07:49:53.294Z,61.97
2023-04-15T07:50:53.370Z,61.83
2023-04-15T07:51:53.460Z,61.36
2023-04-15T07:52:53.560Z,61.63
2023-04-15T07:53:53.642Z,61.22
2023-04-15T07:54:53.724Z,61.43
2023-04-15T07:55:53.810Z,61.30
2023-04-15T07:56:53.897Z,61.63
2023-04-15T07:57:53.999Z,61.91
2023-04-15T07:58:54.075Z,61.60
2023-04-15T07:59:54.134Z,61.47
2023-04-15T08:00:54.200Z,60.63
2023-04-15T08:01:54.352Z,59.72
2023-04-15T08:02:54.541Z,59.92
2023-04-15T08:03:54.673Z,60.22
2023-04-15T08:04:54.685Z,59.92
2023-04-15T08:05:54.623Z,60.10
2023-04-15T08:06:54.721Z,59.99
2023-04-15T08:07:54.826Z,60.10
2023-04-15T08:08:54.857Z,59.77
2023-04-15T08:09:54.934Z,58.92
2023-04-15T08:10:55.010Z,59.03
2023-04-15T08:11:55.096Z,58.62
2023-04-15T08:12:55.196Z,58.82
2023-04-15T08:13:55.261Z,58.82
2023-04-15T08:14:55.338Z,59.03
2023-04-15T08:15:55.441Z,59.33
2023-04-15T08:16:55.505Z,58.92
2023-04-15T08:17:55.664Z,59.16
2023-04-15T08:18:55.699Z,59.86
2023-04-15T08:19:55.764Z,60.07
2023-04-15T08:20:55.827Z,60.27
2023-04-15T08:21:55.910Z,60.07
2023-04-15T08:22:56.011Z,60.40
2023-04-15T08:23:56.061Z,60.50
2023-04-15T08:24:56.131Z,60.30
2023-04-15T08:25:56.217Z,59.99
2023-04-15T08:26:56.323Z,59.79
2023-04-15T08:27:56.403Z,59.79
2023-04-15T08:28:56.510Z,59.77
2023-04-15T08:29:56.575Z,59.86
2023-04-15T08:30:56.644Z,59.69
2023-04-15T08:31:56.813Z,60.30
2023-04-15T08:32:56.915Z,60.60
2023-04-15T08:33:56.908Z,60.40
2023-04-15T08:34:56.966Z,60.74
2023-04-15T08:35:57.071Z,60.71
2023-04-15T08:36:57.140Z,60.50
2023-04-15T08:37:57.225Z,59.97
2023-04-15T08:38:57.295Z,59.97
2023-04-15T08:39:57.367Z,60.14
2023-04-15T08:40:57.446Z,59.00
2023-04-15T08:41:57.509Z,58.87
2023-04-15T08:42:57.606Z,58.34
2023-04-15T08:43:57.698Z,57.07
2023-04-15T08:44:57.772Z,56.33
2023-04-15T08:45:57.858Z,55.69
2023-04-15T08:46:57.971Z,56.00
2023-04-15T08:47:58.079Z,55.74
2023-04-15T08:48:58.084Z,54.10
2023-04-15T08:49:58.148Z,53.27
2023-04-15T08:50:58.226Z,52.54
2023-04-15T08:51:58.291Z,52.36
2023-04-15T08:52:58.412Z,53.70
2023-04-15T08:53:58.466Z,54.03
2023-04-15T08:54:58.635Z,54.66
2023-04-15T08:55:58.634Z,55.52
2023-04-15T08:56:58.734Z,56.53
2023-04-15T08:57:58.802Z,56.46
2023-04-15T08:58:58.880Z,56.99
2023-04-15T08:59:58.937Z,57.50
2023-04-15T09:00:59.069Z,57.70
2023-04-15T09:01:59.131Z,57.42
2023-04-15T09:02:59.267Z,58.13
2023-04-15T09:03:59.295Z,59.10
2023-04-15T09:04:59.337Z,60.17
2023-04-15T09:05:59.398Z,60.68
2023-04-15T09:06:59.493Z,60.98
2023-04-15T09:07:59.586Z,60.78
2023-04-15T09:08:59.947Z,60.75
2023-04-15T09:09:59.737Z,60.04
2023-04-15T09:10:59.837Z,60.04
2023-04-15T09:11:59.898Z,59.81
2023-04-15T09:13:00.032Z,59.48
2023-04-15T09:14:00.091Z,59.25
2023-04-15T09:15:00.174Z,59.88
2023-04-15T09:16:00.248Z,59.78
2023-04-15T09:17:00.452Z,59.38
2023-04-15T09:18:00.426Z,59.05
2023-04-15T09:19:00.711Z,58.54
2023-04-15T09:20:00.562Z,58.74
2023-04-15T09:21:00.638Z,58.74
2023-04-15T09:22:00.715Z,58.20
2023-04-15T09:23:00.823Z,57.80
2023-04-15T09:24:01.194Z,57.90
2023-04-15T09:25:00.930Z,57.90
2023-04-15T09:26:01.004Z,57.80
2023-04-15T09:27:01.114Z,57.83
2023-04-15T09:28:01.198Z,58.44
2023-04-15T09:29:01.231Z,57.80
2023-04-15T09:30:01.313Z,57.90
2023-04-15T09:31:01.411Z,57.57
2023-04-15T09:32:01.551Z,57.04
2023-04-15T09:33:01.560Z,57.01
2023-04-15T09:34:01.844Z,56.48
2023-04-15T09:35:01.700Z,54.99
2023-04-15T09:36:01.781Z,53.30
2023-04-15T09:37:01.858Z,52.34
2023-04-15T09:38:01.932Z,51.68
2023-04-15T09:39:02.013Z,50.76
2023-04-15T09:40:02.055Z,50.58
2023-04-15T09:41:02.169Z,51.03
2023-04-15T09:42:02.244Z,52.17
2023-04-15T09:43:02.364Z,52.47
2023-04-15T09:44:02.503Z,51.66
2023-04-15T09:45:02.472Z,50.89
2023-04-15T09:46:02.577Z,51.54
2023-04-15T09:47:02.622Z,52.04
2023-04-15T09:48:02.793Z,51.26
2023-04-15T09:49:02.740Z,51.76
2023-04-15T09:50:02.951Z,51.26
2023-04-15T09:51:02.879Z,48.21
2023-04-15T09:52:06.258Z,44.51
2023-04-15T09:53:03.059Z,42.21
2023-04-15T09:54:03.327Z,42.61
2023-04-15T09:55:03.202Z,41.93
2023-04-15T09:56:03.257Z,43.26
2023-04-15T09:57:03.394Z,42.44
2023-04-15T09:58:03.461Z,40.52
2023-04-15T09:59:03.521Z,39.92
2023-04-15T10:00:03.597Z,40.44
2023-04-15T10:01:03.716Z,41.35
2023-04-15T10:02:03.806Z,41.36
2023-04-15T10:03:04.104Z,40.78
2023-04-15T10:04:04.177Z,41.36
2023-04-15T10:05:04.026Z,41.67
2023-04-15T10:06:04.088Z,41.87
2023-04-15T10:07:04.181Z,42.82
2023-04-15T10:08:04.303Z,43.34
2023-04-15T10:09:04.374Z,43.75
2023-04-15T10:10:04.512Z,43.32
2023-04-15T10:11:04.518Z,43.51
2023-04-15T10:12:04.582Z,43.06
2023-04-15T10:13:04.717Z,42.96
2023-04-15T10:14:04.983Z,42.25
2023-04-15T10:15:04.835Z,41.85
2023-04-15T10:16:05.021Z,43.06
2023-04-15T10:17:05.001Z,44.42
2023-04-15T10:18:05.118Z,45.00
2023-04-15T10:19:05.127Z,44.90
2023-04-15T10:20:05.347Z,45.30
2023-04-15T10:21:05.306Z,45.78
2023-04-15T10:22:05.408Z,44.37
2023-04-15T10:23:06.889Z,45.70
2023-04-15T10:24:05.581Z,45.68
2023-04-15T10:25:05.643Z,44.90
2023-04-15T10:26:05.719Z,45.48
2023-04-15T10:27:05.792Z,45.81
2023-04-15T10:28:05.889Z,45.83
2023-04-15T10:29:05.951Z,45.95
2023-04-15T10:30:06.038Z,46.68
2023-04-15T10:31:06.185Z,47.41
2023-04-15T10:32:06.224Z,47.71
2023-04-15T10:33:06.340Z,48.22
2023-04-15T10:34:06.398Z,47.75
2023-04-15T10:35:06.445Z,48.26
2023-04-15T10:36:06.544Z,48.06
2023-04-15T10:37:06.608Z,48.06
2023-04-15T10:38:06.712Z,48.69
2023-04-15T10:39:06.752Z,48.69
2023-04-15T10:40:06.861Z,49.38
2023-04-15T10:41:06.917Z,49.38
2023-04-15T10:42:06.995Z,50.11
2023-04-15T10:43:07.084Z,50.51
2023-04-15T10:44:07.136Z,50.13
2023-04-15T10:45:07.201Z,49.42
2023-04-15T10:46:07.313Z,49.22
2023-04-15T10:47:07.357Z,50.03
2023-04-15T10:48:07.529Z,50.23
2023-04-15T10:49:07.527Z,50.43
2023-04-15T10:50:07.618Z,50.54
2023-04-15T10:51:07.696Z,51.07
2023-04-15T10:52:07.786Z,50.86
2023-04-15T10:53:07.887Z,52.59
2023-04-15T10:54:08.080Z,51.65
2023-04-15T10:55:08.040Z,51.25
2023-04-15T10:56:08.120Z,50.74
2023-04-15T10:57:08.203Z,50.23
2023-04-15T10:58:08.312Z,50.84
2023-04-15T10:59:08.389Z,51.25
2023-04-15T11:00:08.463Z,50.74
2023-04-15T11:01:08.525Z,50.43
2023-04-15T11:02:08.785Z,50.63
2023-04-15T11:03:08.949Z,51.45
2023-04-15T11:04:08.962Z,51.42
2023-04-15T11:05:08.877Z,52.23
2023-04-15T11:06:08.976Z,51.62
2023-04-15T11:07:09.030Z,51.83
2023-04-15T11:08:09.127Z,52.66
2023-04-15T11:09:09.182Z,52.76
2023-04-15T11:10:09.257Z,53.91
2023-04-15T11:11:09.346Z,54.59
2023-04-15T11:12:09.443Z,53.17
2023-04-15T11:13:09.551Z,53.91
2023-04-15T11:14:10.522Z,53.67
2023-04-15T11:15:09.665Z,53.17
2023-04-15T11:16:09.774Z,53.47
2023-04-15T11:17:09.796Z,53.58
2023-04-15T11:18:09.937Z,53.07
2023-04-15T11:19:09.969Z,53.75
2023-04-15T11:20:10.066Z,53.78
2023-04-15T11:21:10.131Z,53.27
2023-04-15T11:22:10.200Z,53.78
2023-04-15T11:23:15.007Z,52.66
2023-04-15T11:24:10.364Z,53.85
2023-04-15T11:25:10.425Z,53.96
2023-04-15T11:26:10.490Z,53.52
2023-04-15T11:27:10.560Z,52.99
2023-04-15T11:28:10.704Z,52.19
2023-04-15T11:29:10.748Z,52.59
2023-04-15T11:30:10.817Z,51.81
2023-04-15T11:31:10.950Z,53.05
2023-04-15T11:32:11.058Z,53.14
2023-04-15T11:33:11.036Z,53.58
2023-04-15T11:34:11.096Z,53.67
2023-04-15T11:35:11.189Z,54.00
2023-04-15T11:36:11.294Z,54.28
2023-04-15T11:37:11.345Z,53.88
2023-04-15T11:38:11.470Z,53.88
2023-04-15T11:39:11.519Z,54.18
2023-04-15T11:40:11.618Z,54.08
2023-04-15T11:41:11.710Z,54.89
2023-04-15T11:42:11.804Z,53.88
2023-04-15T11:43:11.904Z,54.24
2023-04-15T11:44:12.003Z,55.04
2023-04-15T11:45:12.088Z,55.45
2023-04-15T11:46:12.237Z,55.04
2023-04-15T11:47:12.281Z,54.97
2023-04-15T11:48:12.410Z,55.68
2023-04-15T11:49:12.469Z,55.98
2023-04-15T11:50:12.568Z,55.98
2023-04-15T11:51:12.660Z,55.88
2023-04-15T11:52:12.797Z,56.09
2023-04-15T11:53:12.841Z,56.11
2023-04-15T11:54:12.900Z,56.82
2023-04-15T11:55:12.968Z,56.52
2023-04-15T11:56:13.057Z,56.11
2023-04-15T11:57:13.124Z,55.88
2023-04-15T11:58:15.072Z,56.31
2023-04-15T11:59:13.253Z,56.72
2023-04-15T12:00:13.345Z,56.62
2023-04-15T12:01:13.401Z,56.92
2023-04-15T12:02:13.629Z,57.12
2023-04-15T12:03:13.745Z,56.62
2023-04-15T12:04:13.769Z,57.23
2023-04-15T12:05:13.766Z,56.85
2023-04-15T12:06:13.821Z,57.25
2023-04-15T12:07:13.885Z,57.05
2023-04-15T12:08:13.998Z,57.25
2023-04-15T12:09:14.022Z,57.59
2023-04-15T12:10:14.104Z,58.20
2023-04-15T12:11:14.172Z,58.17
2023-04-15T12:12:14.256Z,58.37
2023-04-15T12:13:14.346Z,57.97
2023-04-15T12:14:14.441Z,58.37
2023-04-15T12:15:14.524Z,58.50
2023-04-15T12:16:14.704Z,58.50
2023-04-15T12:17:14.681Z,58.27
2023-04-15T12:18:14.832Z,58.17
2023-04-15T12:19:14.851Z,58.27
2023-04-15T12:20:14.939Z,58.37
2023-04-15T12:21:15.018Z,57.66
2023-04-15T12:22:15.109Z,57.46
2023-04-15T12:23:15.185Z,57.46
2023-04-15T12:24:15.228Z,58.06
2023-04-15T12:25:15.311Z,58.37
2023-04-15T12:26:15.400Z,57.86
2023-04-15T12:27:15.467Z,57.76
2023-04-15T12:28:15.585Z,57.93
2023-04-15T12:29:15.657Z,58.67
2023-04-15T12:30:15.739Z,58.06
2023-04-15T12:31:15.847Z,58.37
2023-04-15T12:32:15.881Z,57.97
2023-04-15T12:33:15.966Z,58.37
2023-04-15T12:34:16.046Z,58.37
2023-04-15T12:35:16.131Z,58.37
2023-04-15T12:36:16.209Z,58.88
2023-04-15T12:37:16.300Z,58.98
2023-04-15T12:38:16.409Z,59.08
2023-04-15T12:39:16.447Z,58.40
2023-04-15T12:40:16.542Z,58.37
2023-04-15T12:41:16.612Z,58.17
2023-04-15T12:42:16.700Z,58.29
2023-04-15T12:43:16.853Z,58.06
2023-04-15T12:44:16.853Z,58.17
2023-04-15T12:45:16.928Z,58.17
2023-04-15T12:46:17.088Z,58.47
2023-04-15T12:47:17.181Z,58.37
2023-04-15T12:48:17.227Z,59.08
2023-04-15T12:49:17.276Z,59.08
2023-04-15T12:50:17.353Z,59.08
2023-04-15T12:51:17.410Z,59.01
2023-04-15T12:52:17.486Z,59.72
2023-04-15T12:53:17.640Z,60.15